createdAt,value
2022-10-31T00:01:17.206Z,13.02
2022-10-31T00:03:44.197Z,6.22
2022-10-31T00:06:11.016Z,8.75
2022-10-31T00:08:37.940Z,7.90
2022-10-31T00:11:04.901Z,8.50
2022-10-31T00:13:32.576Z,7.88
2022-10-31T00:15:59.383Z,8.18
2022-10-31T00:18:26.186Z,5.25
2022-10-31T00:21:03.266Z,6.30
2022-10-31T00:23:30.428Z,4.20
2022-10-31T00:26:02.997Z,10.27
2022-10-31T00:28:31.411Z,6.82
2022-10-31T00:31:02.237Z,6.22
2022-10-31T00:33:29.476Z,5.70
2022-10-31T00:35:57.019Z,10.15
2022-10-31T00:38:23.936Z,5.28
2022-10-31T00:40:50.826Z,9.82
2022-10-31T00:43:17.685Z,9.02
2022-10-31T00:45:44.859Z,6.78
2022-10-31T00:48:12.421Z,6.20
2022-10-31T00:50:40.123Z,3.70
2022-10-31T00:53:07.209Z,8.48
2022-10-31T00:55:34.046Z,12.40
2022-10-31T00:58:01.619Z,9.02
2022-10-31T01:00:28.864Z,7.18
2022-10-31T01:02:55.845Z,10.93
2022-10-31T01:05:23.217Z,7.63
2022-10-31T01:07:50.166Z,4.40
2022-10-31T01:10:18.929Z,5.47
2022-10-31T01:12:48.476Z,7.70
2022-10-31T01:15:18.923Z,4.28
2022-10-31T01:17:45.710Z,6.05
2022-10-31T01:20:14.670Z,5.40
2022-10-31T01:22:41.669Z,8.23
2022-10-31T01:25:10.137Z,7.05
2022-10-31T01:27:37.098Z,12.07
2022-10-31T01:30:05.265Z,6.85
2022-10-31T01:32:32.128Z,6.28
2022-10-31T01:34:58.992Z,5.05
2022-10-31T01:37:25.852Z,7.30
2022-10-31T01:39:52.686Z,5.07
2022-10-31T01:42:21.753Z,4.53
2022-10-31T01:44:58.542Z,8.60
2022-10-31T01:47:39.179Z,4.55
2022-10-31T01:50:13.763Z,6.15
2022-10-31T01:52:47.171Z,4.63
2022-10-31T01:55:23.240Z,4.70
2022-10-31T01:57:54.362Z,5.07
2022-10-31T02:00:23.090Z,9.38
2022-10-31T02:02:51.574Z,3.63
2022-10-31T02:05:25.924Z,8.73
2022-10-31T02:08:01.180Z,3.75
2022-10-31T02:10:30.179Z,6.15
2022-10-31T02:12:59.971Z,7.60
2022-10-31T02:15:27.285Z,4.10
2022-10-31T02:17:54.298Z,7.72
2022-10-31T02:20:23.415Z,9.43
2022-10-31T02:23:38.277Z,6.25
2022-10-31T02:26:20.761Z,4.82
2022-10-31T02:29:28.392Z,4.72
2022-10-31T02:32:04.312Z,5.88
2022-10-31T02:34:37.292Z,6.53
2022-10-31T02:37:31.211Z,5.10
2022-10-31T02:40:07.499Z,9.25
2022-10-31T02:42:51.966Z,4.13
2022-10-31T02:45:31.157Z,5.40
2022-10-31T02:48:03.003Z,3.45
2022-10-31T02:50:33.760Z,5.00
2022-10-31T02:53:01.879Z,9.25
2022-10-31T02:55:31.350Z,6.90
2022-10-31T02:58:16.905Z,4.35
2022-10-31T03:01:17.892Z,8.77
2022-10-31T03:04:21.472Z,4.15
2022-10-31T03:07:02.521Z,12.57
2022-10-31T03:09:55.679Z,8.52
2022-10-31T03:12:25.521Z,6.82
2022-10-31T03:15:05.742Z,9.30
2022-10-31T03:17:39.569Z,7.63
2022-10-31T03:20:09.584Z,9.55
2022-10-31T03:22:38.914Z,8.95
2022-10-31T03:25:06.954Z,7.20
2022-10-31T03:27:36.772Z,10.63
2022-10-31T03:30:06.640Z,7.60
2022-10-31T03:32:39.588Z,8.75
2022-10-31T03:35:08.701Z,8.35
2022-10-31T03:37:37.146Z,9.63
2022-10-31T03:40:07.907Z,6.70
2022-10-31T03:42:38.497Z,7.20
2022-10-31T03:45:20.030Z,10.60
2022-10-31T03:47:47.040Z,8.60
2022-10-31T03:50:16.186Z,10.75
2022-10-31T03:53:04.306Z,9.05
2022-10-31T03:56:00.242Z,9.00
2022-10-31T03:58:33.504Z,10.07
2022-10-31T04:01:03.467Z,7.50
2022-10-31T04:03:34.564Z,8.90
2022-10-31T04:06:06.681Z,9.50
2022-10-31T04:08:39.144Z,10.77
2022-10-31T04:11:08.698Z,22.10
2022-10-31T04:13:38.352Z,10.00
2022-10-31T04:16:05.727Z,11.75
2022-10-31T04:18:32.659Z,6.80
2022-10-31T04:21:05.261Z,7.40
2022-10-31T04:23:32.235Z,12.07
2022-10-31T04:25:59.057Z,11.48
2022-10-31T04:28:25.922Z,11.40
2022-10-31T04:30:53.301Z,9.30
2022-10-31T04:33:20.769Z,23.20
2022-10-31T04:35:48.007Z,12.13
2022-10-31T04:38:14.844Z,12.43
2022-10-31T04:40:41.670Z,8.50
2022-10-31T04:43:08.569Z,15.60
2022-10-31T04:45:35.463Z,12.57
2022-10-31T04:48:02.707Z,12.13
2022-10-31T04:50:29.785Z,10.07
2022-10-31T04:52:56.787Z,15.20
2022-10-31T04:55:23.640Z,19.02
2022-10-31T04:57:51.709Z,9.85
2022-10-31T05:00:20.175Z,11.18
2022-10-31T05:02:48.758Z,16.05
2022-10-31T05:05:17.424Z,11.50
2022-10-31T05:07:46.430Z,18.35
2022-10-31T05:10:17.267Z,9.43
2022-10-31T05:12:49.061Z,13.30
2022-10-31T05:15:17.399Z,7.93
2022-10-31T05:17:44.305Z,9.20
2022-10-31T05:20:15.652Z,6.78
2022-10-31T05:22:50.918Z,11.93
2022-10-31T05:25:19.490Z,8.10
2022-10-31T05:27:48.622Z,7.90
2022-10-31T05:30:18.793Z,7.13
2022-10-31T05:32:47.970Z,7.13
2022-10-31T05:35:21.816Z,9.27
2022-10-31T05:37:48.988Z,11.27
2022-10-31T05:40:17.409Z,10.20
2022-10-31T05:42:44.671Z,12.27
2022-10-31T05:45:15.996Z,14.57
2022-10-31T05:47:43.380Z,9.15
2022-10-31T05:50:11.204Z,26.58
2022-10-31T05:52:38.074Z,17.15
2022-10-31T05:55:05.338Z,16.70
2022-10-31T05:57:33.818Z,20.05
2022-10-31T06:00:01.067Z,17.63
2022-10-31T06:02:28.237Z,28.05
2022-10-31T06:04:55.290Z,18.92
2022-10-31T06:07:22.214Z,12.75
2022-10-31T06:09:49.027Z,14.35
2022-10-31T06:12:15.860Z,9.95
2022-10-31T06:14:42.641Z,10.95
2022-10-31T06:17:09.442Z,25.98
2022-10-31T06:19:36.314Z,15.82
2022-10-31T06:22:03.287Z,16.25
2022-10-31T06:24:30.165Z,18.55
2022-10-31T06:26:56.996Z,15.32
2022-10-31T06:29:23.903Z,16.75
2022-10-31T06:31:52.979Z,15.02
2022-10-31T06:34:19.861Z,13.13
2022-10-31T06:36:50.175Z,16.17
2022-10-31T06:39:17.063Z,12.68
2022-10-31T06:41:43.884Z,22.58
2022-10-31T06:44:10.760Z,19.20
2022-10-31T06:46:37.607Z,16.83
2022-10-31T06:49:04.485Z,14.82
2022-10-31T06:51:31.436Z,11.32
2022-10-31T06:53:58.235Z,33.10
2022-10-31T06:56:25.163Z,14.80
2022-10-31T06:58:52.102Z,14.63
2022-10-31T07:01:19.051Z,13.32
2022-10-31T07:03:45.961Z,9.43
2022-10-31T07:06:12.841Z,12.35
2022-10-31T07:08:39.670Z,14.32
2022-10-31T07:11:06.779Z,15.00
2022-10-31T07:13:33.867Z,16.35
2022-10-31T07:16:03.259Z,14.68
2022-10-31T07:18:30.243Z,25.98
2022-10-31T07:20:57.179Z,24.20
2022-10-31T07:23:23.947Z,17.92
2022-10-31T07:25:59.508Z,35.58
2022-10-31T07:28:27.557Z,18.67
2022-10-31T07:30:58.894Z,19.42
2022-10-31T07:33:29.287Z,40.47
2022-10-31T07:35:56.188Z,29.70
2022-10-31T07:38:23.037Z,49.95
2022-10-31T07:40:56.203Z,25.77
2022-10-31T07:43:23.755Z,20.20
2022-10-31T07:45:52.132Z,19.80
2022-10-31T07:48:18.977Z,25.42
2022-10-31T07:50:45.949Z,24.17
2022-10-31T07:53:14.071Z,21.05
2022-10-31T07:55:41.433Z,11.80
2022-10-31T07:58:11.436Z,14.32
2022-10-31T08:00:39.888Z,12.35
2022-10-31T08:03:11.970Z,26.80
2022-10-31T08:05:38.998Z,12.70
2022-10-31T08:08:06.696Z,15.35
2022-10-31T08:10:34.994Z,14.27
2022-10-31T08:13:03.488Z,19.08
2022-10-31T08:15:31.421Z,11.90
2022-10-31T08:17:59.468Z,11.40
2022-10-31T08:20:26.841Z,9.40
2022-10-31T08:22:55.289Z,14.60
2022-10-31T08:25:22.570Z,16.38
2022-10-31T08:27:56.336Z,6.32
2022-10-31T08:30:25.785Z,13.68
2022-10-31T08:33:17.979Z,12.73
2022-10-31T08:35:45.591Z,7.95
2022-10-31T08:38:14.013Z,9.35
2022-10-31T08:40:41.027Z,8.63
2022-10-31T08:43:16.176Z,9.48
2022-10-31T08:45:44.217Z,8.23
2022-10-31T08:48:13.776Z,8.90
2022-10-31T08:50:41.318Z,12.48
2022-10-31T08:53:13.236Z,14.23
2022-10-31T08:55:41.229Z,15.80
2022-10-31T08:58:11.604Z,11.30
2022-10-31T09:00:38.839Z,12.77
2022-10-31T09:03:09.826Z,12.15
2022-10-31T09:05:36.917Z,12.00
2022-10-31T09:08:05.809Z,12.00
2022-10-31T09:10:34.031Z,7.25
2022-10-31T09:13:05.124Z,5.45
2022-10-31T09:15:31.953Z,7.15
2022-10-31T09:17:59.207Z,7.53
2022-10-31T09:20:26.512Z,13.35
2022-10-31T09:22:58.297Z,9.20
2022-10-31T09:25:25.731Z,8.05
2022-10-31T09:27:56.131Z,10.05
2022-10-31T09:30:23.361Z,5.90
2022-10-31T09:32:56.432Z,7.32
2022-10-31T09:35:25.701Z,8.23
2022-10-31T09:38:00.895Z,5.07
2022-10-31T09:40:48.123Z,6.13
2022-10-31T09:43:37.211Z,12.52
2022-10-31T09:46:12.670Z,9.23
2022-10-31T09:49:04.292Z,8.30
2022-10-31T09:51:38.659Z,6.63
2022-10-31T09:54:12.166Z,6.90
2022-10-31T09:56:39.457Z,4.57
2022-10-31T09:59:12.757Z,6.50
2022-10-31T10:01:57.398Z,6.45
2022-10-31T10:04:38.280Z,6.25
2022-10-31T10:07:17.360Z,7.68
2022-10-31T10:09:45.420Z,14.55
2022-10-31T10:12:16.116Z,7.55
2022-10-31T10:14:52.391Z,17.13
2022-10-31T10:17:32.798Z,17.02
2022-10-31T10:20:22.832Z,9.57
2022-10-31T10:23:14.410Z,12.85
2022-10-31T10:25:44.871Z,8.02
2022-10-31T10:28:30.024Z,7.57
2022-10-31T10:30:59.630Z,7.45
2022-10-31T10:33:37.895Z,7.22
2022-10-31T10:36:19.368Z,4.32
2022-10-31T10:38:49.187Z,9.50
2022-10-31T10:41:20.239Z,5.03
2022-10-31T10:43:49.894Z,6.78
2022-10-31T10:46:59.482Z,7.05
2022-10-31T10:49:36.285Z,4.43
2022-10-31T10:55:20.375Z,7.47
2022-10-31T10:57:56.227Z,3.20
2022-10-31T11:00:43.019Z,5.80
2022-10-31T11:03:11.728Z,6.03
2022-10-31T11:05:48.182Z,6.40
2022-10-31T11:08:29.721Z,8.55
2022-10-31T11:10:59.279Z,8.45
2022-10-31T11:13:27.497Z,5.75
2022-10-31T11:16:02.639Z,5.65
2022-10-31T11:18:33.115Z,4.78
2022-10-31T11:21:02.296Z,6.78
2022-10-31T11:23:30.125Z,4.53
2022-10-31T11:26:00.819Z,5.40
2022-10-31T11:28:30.444Z,7.33
2022-10-31T11:31:01.992Z,6.47
2022-10-31T11:36:04.869Z,7.47
2022-10-31T11:38:42.556Z,9.20
2022-10-31T11:41:16.818Z,11.00
2022-10-31T11:43:51.889Z,8.18
2022-10-31T11:46:27.731Z,10.63
2022-10-31T11:48:56.415Z,19.45
2022-10-31T11:51:32.492Z,23.83
2022-10-31T11:54:02.947Z,12.00
2022-10-31T11:56:41.245Z,15.35
2022-10-31T11:59:23.751Z,8.18
2022-10-31T12:01:53.083Z,23.70
2022-10-31T12:04:25.403Z,9.32
2022-10-31T12:06:53.605Z,11.68
2022-10-31T12:09:24.512Z,5.88
2022-10-31T12:12:07.478Z,7.57
2022-10-31T12:15:00.922Z,23.35
2022-10-31T12:17:50.659Z,11.52
2022-10-31T12:20:48.751Z,7.45
2022-10-31T12:23:19.229Z,8.93
2022-10-31T12:25:56.995Z,8.20
2022-10-31T12:28:47.193Z,12.35
2022-10-31T12:31:30.173Z,11.07
2022-10-31T12:34:18.008Z,9.23
2022-10-31T12:36:52.763Z,7.53
2022-10-31T12:39:26.867Z,8.40
2022-10-31T12:41:58.336Z,8.60
2022-10-31T12:44:45.965Z,4.75
2022-10-31T12:47:15.501Z,8.40
2022-10-31T12:50:00.819Z,13.90
2022-10-31T12:52:45.723Z,7.55
2022-10-31T12:55:18.100Z,7.20
2022-10-31T12:57:51.482Z,8.73
2022-10-31T13:00:20.255Z,5.82
2022-10-31T13:03:03.924Z,7.15
2022-10-31T13:05:32.619Z,4.10
2022-10-31T13:08:23.052Z,3.42
2022-10-31T13:10:52.902Z,5.72
2022-10-31T13:13:27.813Z,14.63
2022-10-31T13:16:01.967Z,11.82
2022-10-31T13:18:52.265Z,22.40
2022-10-31T13:21:46.816Z,9.68
2022-10-31T13:24:23.611Z,13.82
2022-10-31T13:26:55.243Z,9.13
2022-10-31T13:29:56.442Z,13.05
2022-10-31T13:32:23.720Z,9.48
2022-10-31T13:34:57.495Z,4.65
2022-10-31T13:37:37.978Z,13.02
2022-10-31T13:40:23.249Z,7.20
2022-10-31T13:43:03.933Z,7.72
2022-10-31T13:45:30.900Z,9.30
2022-10-31T13:48:04.185Z,14.57
2022-10-31T13:50:34.017Z,13.50
2022-10-31T13:53:19.150Z,8.05
2022-10-31T13:55:49.023Z,10.48
2022-10-31T13:58:26.839Z,9.45
2022-10-31T14:01:04.195Z,8.65
2022-10-31T14:03:57.783Z,10.70
2022-10-31T14:06:20.027Z,7.82
2022-10-31T14:08:52.081Z,9.23
2022-10-31T14:11:32.983Z,8.63
2022-10-31T14:14:03.457Z,8.27
2022-10-31T14:16:32.561Z,8.15
2022-10-31T14:19:03.135Z,9.50
2022-10-31T14:21:42.151Z,11.18
2022-10-31T14:24:32.012Z,8.35
2022-10-31T14:27:20.489Z,9.75
2022-10-31T14:29:50.571Z,8.77
2022-10-31T14:32:26.264Z,7.28
2022-10-31T14:34:57.307Z,13.68
2022-10-31T14:37:32.493Z,11.10
2022-10-31T14:40:17.382Z,16.75
2022-10-31T14:43:09.057Z,11.90
2022-10-31T14:45:50.422Z,9.80
2022-10-31T14:48:44.978Z,15.98
2022-10-31T14:51:19.169Z,13.20
2022-10-31T14:53:52.588Z,9.45
2022-10-31T14:56:43.174Z,9.02
2022-10-31T14:59:15.115Z,12.77
2022-10-31T15:01:58.239Z,7.75
2022-10-31T15:04:33.416Z,9.48
2022-10-31T15:07:24.723Z,16.98
2022-10-31T15:10:02.222Z,10.43
2022-10-31T15:12:30.077Z,9.43
2022-10-31T15:14:57.597Z,12.60
2022-10-31T15:17:26.290Z,20.27
2022-10-31T15:19:54.051Z,15.90
2022-10-31T15:22:24.925Z,16.27
2022-10-31T15:24:57.293Z,19.33
2022-10-31T15:27:25.087Z,54.60
2022-10-31T15:29:55.430Z,32.05
2022-10-31T15:32:28.267Z,22.30
2022-10-31T15:34:57.103Z,19.83
2022-10-31T15:37:26.679Z,20.88
2022-10-31T15:39:53.796Z,23.55
2022-10-31T15:42:40.156Z,21.42
2022-10-31T15:45:22.406Z,20.58
2022-10-31T15:47:57.704Z,19.67
2022-10-31T15:50:34.781Z,27.58
2022-10-31T15:53:02.819Z,29.00
2022-10-31T15:55:33.909Z,26.05
2022-10-31T15:58:05.801Z,25.33
2022-10-31T16:00:35.552Z,24.60
2022-10-31T16:03:09.382Z,25.92
2022-10-31T16:05:47.621Z,28.73
2022-10-31T16:08:34.168Z,28.40
2022-10-31T16:11:04.531Z,32.33
2022-10-31T16:13:38.476Z,25.92
2022-10-31T16:16:34.266Z,22.63
2022-10-31T16:19:04.407Z,21.20
2022-10-31T16:21:37.554Z,20.17
2022-10-31T16:24:22.384Z,19.90
2022-10-31T16:26:54.889Z,19.98
2022-10-31T16:29:36.553Z,22.33
2022-10-31T16:32:03.483Z,26.00
2022-10-31T16:34:31.792Z,22.77
2022-10-31T16:36:58.568Z,24.85
2022-10-31T16:39:25.468Z,20.75
2022-10-31T16:41:55.773Z,21.83
2022-10-31T16:44:24.996Z,21.33
2022-10-31T16:47:17.324Z,25.23
2022-10-31T16:49:47.139Z,21.95
2022-10-31T16:52:13.938Z,27.88
2022-10-31T16:54:40.789Z,22.92
2022-10-31T16:57:13.388Z,20.83
2022-10-31T16:59:40.243Z,23.45
2022-10-31T17:02:15.103Z,24.75
2022-10-31T17:04:41.976Z,22.92
2022-10-31T17:07:08.832Z,28.48
2022-10-31T17:09:35.705Z,28.65
2022-10-31T17:12:02.851Z,25.88
2022-10-31T17:14:29.769Z,32.55
2022-10-31T17:16:59.136Z,23.27
2022-10-31T17:19:26.106Z,23.58
2022-10-31T17:21:53.028Z,25.15
2022-10-31T17:24:19.804Z,21.20
2022-10-31T17:26:47.264Z,17.95
2022-10-31T17:29:15.191Z,16.58
2022-10-31T17:31:42.423Z,24.73
2022-10-31T17:34:09.681Z,17.58
2022-10-31T17:36:36.961Z,17.30
2022-10-31T17:39:07.404Z,18.27
2022-10-31T17:41:34.246Z,19.45
2022-10-31T17:44:01.079Z,16.67
2022-10-31T17:46:28.646Z,19.52
2022-10-31T17:48:55.490Z,13.23
2022-10-31T17:51:22.348Z,13.52
2022-10-31T17:53:49.172Z,19.77
2022-10-31T17:56:15.975Z,18.25
2022-10-31T17:58:42.834Z,22.40
2022-10-31T18:01:15.005Z,16.00
2022-10-31T18:03:42.220Z,17.27
2022-10-31T18:06:10.572Z,21.67
2022-10-31T18:08:40.493Z,16.85
2022-10-31T18:11:14.719Z,18.67
2022-10-31T18:13:41.838Z,19.52
2022-10-31T18:16:18.906Z,21.67
2022-10-31T18:18:51.467Z,17.98
2022-10-31T18:21:18.446Z,18.98
2022-10-31T18:23:45.258Z,22.75
2022-10-31T18:26:12.341Z,15.07
2022-10-31T18:28:39.190Z,18.50
2022-10-31T18:31:06.066Z,20.38
2022-10-31T18:33:32.850Z,17.75
2022-10-31T18:36:07.565Z,19.33
2022-10-31T18:38:37.293Z,17.08
2022-10-31T18:41:04.179Z,14.13
2022-10-31T18:43:30.986Z,17.95
2022-10-31T18:46:05.139Z,19.20
2022-10-31T18:48:32.225Z,23.10
2022-10-31T18:51:06.249Z,16.10
2022-10-31T18:53:33.607Z,20.20
2022-10-31T18:56:01.205Z,13.32
2022-10-31T18:58:29.546Z,15.27
2022-10-31T19:00:56.453Z,21.10
2022-10-31T19:03:26.804Z,18.25
2022-10-31T19:05:56.861Z,15.55
2022-10-31T19:08:23.834Z,16.25
2022-10-31T19:10:50.712Z,28.08
2022-10-31T19:13:17.722Z,19.08
2022-10-31T19:15:44.641Z,18.13
2022-10-31T19:18:11.443Z,13.82
2022-10-31T19:20:39.210Z,11.77
2022-10-31T19:23:06.397Z,15.35
2022-10-31T19:25:33.282Z,12.07
2022-10-31T19:28:00.673Z,13.45
2022-10-31T19:30:27.762Z,17.60
2022-10-31T19:32:55.931Z,19.88
2022-10-31T19:35:22.736Z,19.75
2022-10-31T19:37:49.611Z,16.15
2022-10-31T19:40:16.555Z,16.77
2022-10-31T19:42:43.364Z,17.23
2022-10-31T19:45:11.029Z,15.95
2022-10-31T19:47:37.894Z,17.98
2022-10-31T19:50:05.096Z,16.35
2022-10-31T19:52:35.571Z,14.93
2022-10-31T19:55:02.934Z,14.90
2022-10-31T19:57:48.403Z,15.82
2022-10-31T20:00:16.674Z,13.13
2022-10-31T20:02:43.519Z,15.25
2022-10-31T20:05:10.345Z,16.75
2022-10-31T20:07:37.202Z,12.45
2022-10-31T20:10:04.340Z,13.75
2022-10-31T20:12:33.293Z,17.30
2022-10-31T20:15:00.097Z,14.15
2022-10-31T20:17:26.940Z,14.80
2022-10-31T20:19:54.114Z,26.00
2022-10-31T20:22:21.005Z,13.27
2022-10-31T20:24:47.811Z,14.63
2022-10-31T20:27:14.697Z,13.93
2022-10-31T20:29:41.616Z,15.10
2022-10-31T20:32:08.421Z,12.68
2022-10-31T20:34:35.279Z,13.43
2022-10-31T20:37:02.131Z,14.68
2022-10-31T20:39:29.587Z,13.60
2022-10-31T20:41:56.408Z,15.98
2022-10-31T20:44:23.311Z,13.50
2022-10-31T20:46:50.102Z,14.60
2022-10-31T20:49:17.863Z,14.93
2022-10-31T20:51:44.664Z,14.57
2022-10-31T20:54:13.938Z,15.32
2022-10-31T20:56:40.749Z,17.48
2022-10-31T20:59:07.695Z,17.17
2022-10-31T21:01:36.393Z,17.80
2022-10-31T21:04:04.737Z,18.83
2022-10-31T21:06:31.930Z,17.92
2022-10-31T21:08:58.797Z,10.43
2022-10-31T21:11:27.814Z,11.05
2022-10-31T21:13:54.963Z,9.38
2022-10-31T21:16:28.053Z,10.40
2022-10-31T21:18:55.519Z,12.88
2022-10-31T21:21:32.777Z,11.13
2022-10-31T21:24:20.835Z,12.20
2022-10-31T21:26:50.857Z,10.45
2022-10-31T21:29:18.442Z,10.45
2022-10-31T21:31:45.819Z,15.10
2022-10-31T21:34:12.742Z,13.35
2022-10-31T21:36:39.703Z,11.73
2022-10-31T21:39:08.524Z,15.35
2022-10-31T21:41:35.804Z,11.68
2022-10-31T21:44:02.692Z,14.30
2022-10-31T21:46:32.101Z,11.90
2022-10-31T21:48:59.683Z,17.23
2022-10-31T21:51:29.184Z,14.05
2022-10-31T21:54:15.458Z,18.83
2022-10-31T21:56:43.274Z,15.15
2022-10-31T21:59:10.398Z,15.07
2022-10-31T22:01:37.766Z,15.40
2022-10-31T22:04:04.855Z,11.90
2022-10-31T22:06:32.207Z,13.27
2022-10-31T22:09:00.891Z,12.70
2022-10-31T22:11:28.579Z,13.90
2022-10-31T22:13:56.634Z,11.57
2022-10-31T22:16:25.280Z,10.98
2022-10-31T22:18:54.143Z,13.77
2022-10-31T22:21:24.002Z,14.43
2022-10-31T22:23:56.734Z,11.70
2022-10-31T22:26:23.893Z,13.95
2022-10-31T22:29:02.263Z,13.95
2022-10-31T22:31:30.870Z,11.30
2022-10-31T22:33:58.043Z,13.55
2022-10-31T22:36:27.373Z,12.77
2022-10-31T22:38:54.663Z,15.40
2022-10-31T22:41:26.933Z,16.25
2022-10-31T22:43:55.132Z,16.08
2022-10-31T22:46:27.305Z,14.00
2022-10-31T22:49:00.944Z,14.38
2022-10-31T22:51:30.684Z,13.75
2022-10-31T22:53:57.798Z,12.93
2022-10-31T22:56:27.784Z,16.15
2022-10-31T22:58:55.037Z,12.00
2022-10-31T23:01:26.103Z,12.48
2022-10-31T23:03:53.705Z,10.18
2022-10-31T23:06:23.580Z,13.77
2022-10-31T23:08:51.922Z,11.13
2022-10-31T23:11:27.136Z,14.30
2022-10-31T23:14:09.184Z,13.90
2022-10-31T23:16:54.036Z,13.43
2022-10-31T23:19:29.410Z,15.85
2022-10-31T23:22:00.567Z,13.98
2022-10-31T23:24:39.394Z,14.18
2022-10-31T23:27:18.093Z,9.40
2022-10-31T23:29:46.414Z,11.27
2022-10-31T23:32:18.151Z,13.05
2022-10-31T23:37:12.338Z,12.38
2022-10-31T23:39:39.362Z,12.30
2022-10-31T23:42:06.699Z,12.13
2022-10-31T23:44:33.573Z,10.10
2022-10-31T23:47:00.761Z,12.85
2022-10-31T23:49:29.396Z,10.57
2022-10-31T23:51:59.000Z,10.75
2022-10-31T23:54:26.922Z,10.75
2022-10-31T23:56:54.166Z,10.73
2022-10-31T23:59:22.867Z,10.85
